Time;durP1;ratioP1;P1;durP2;ratioP2;P2;SDS_P1;SDS_P2;PMS_P1;PMS_P2;Temp;Humidity;BMP_temperature;BMP_pressure;BME280_temperature;BME280_humidity;BME280_pressure;Samples;Min_cycle;Max_cycle;Signal;HPM_P1;HPM_P2
2023/05/10 00:01:14;;;;;;;;;;;13.30;99.90;;;;;;5059603;28;19928;-68
2023/05/10 00:03:41;;;;;;;;;;;13.30;99.90;;;;;;5061397;28;19932;-69
2023/05/10 00:06:08;;;;;;;;;;;13.30;99.90;;;;;;5060688;28;20350;-69
2023/05/10 00:08:35;;;;;;;;;;;13.30;99.90;;;;;;5053133;28;19928;-68
2023/05/10 00:11:01;;;;;;;;;;;13.30;99.90;;;;;;5079345;22;19932;-66
2023/05/10 00:13:29;;;;;;;;;;;13.30;99.90;;;;;;5067113;28;19986;-68
2023/05/10 00:15:56;;;;;;;;;;;13.30;99.90;;;;;;5063644;28;19967;-66
2023/05/10 00:18:23;;;;;;;;;;;13.30;99.90;;;;;;5063478;28;19924;-67
2023/05/10 00:20:49;;;;;;;;;;;13.30;99.90;;;;;;5065744;28;20342;-68
2023/05/10 00:23:16;;;;;;;;;;;13.30;99.90;;;;;;5058626;28;19925;-68
2023/05/10 00:25:43;;;;;;;;;;;13.30;99.90;;;;;;5048717;28;19928;-67
2023/05/10 00:28:10;;;;;;;;;;;13.30;99.90;;;;;;5058618;28;19931;-68
2023/05/10 00:30:39;;;;;;;;;;;13.20;99.90;;;;;;5054499;28;19925;-68
2023/05/10 00:33:06;;;;;;;;;;;13.20;99.90;;;;;;5070280;28;19931;-67
2023/05/10 00:35:33;;;;;;;;;;;13.20;99.90;;;;;;5077375;28;20011;-68
2023/05/10 00:38:00;;;;;;;;;;;13.20;99.90;;;;;;5058002;28;19925;-69
2023/05/10 00:40:28;;;;;;;;;;;13.20;99.90;;;;;;5044443;28;19925;-68
2023/05/10 00:43:00;;;;;;;;;;;13.20;99.90;;;;;;5053239;28;19924;-68
2023/05/10 00:45:27;;;;;;;;;;;13.20;99.90;;;;;;5056404;28;20019;-67
2023/05/10 00:47:55;;;;;;;;;;;13.20;99.90;;;;;;5054972;28;19929;-68
2023/05/10 00:50:22;;;;;;;;;;;13.20;99.90;;;;;;5051365;28;19983;-69
2023/05/10 00:52:49;;;;;;;;;;;13.20;99.90;;;;;;5053725;28;19932;-67
2023/05/10 00:55:16;;;;;;;;;;;;;;;;;;5053725;28;20384;-67
2023/05/10 00:57:43;;;;;;;;;;;13.20;99.90;;;;;;5052787;28;19932;-68
2023/05/10 01:00:11;;;;;;;;;;;13.20;99.90;;;;;;5048834;28;20384;-69
2023/05/10 01:02:37;;;;;;;;;;;13.20;99.90;;;;;;5045311;28;20300;-68
2023/05/10 01:05:06;;;;;;;;;;;13.20;99.90;;;;;;5043593;28;19925;-68
2023/05/10 01:07:33;;;;;;;;;;;13.20;99.90;;;;;;5053894;28;19924;-68
2023/05/10 01:10:00;;;;;;;;;;;13.20;99.90;;;;;;5048271;28;19932;-67
2023/05/10 01:12:27;;;;;;;;;;;13.20;99.90;;;;;;5050769;28;19925;-68
2023/05/10 01:14:55;;;;;;;;;;;13.20;99.90;;;;;;5059509;28;20023;-69
2023/05/10 01:17:22;;;;;;;;;;;13.20;99.90;;;;;;5056291;28;19925;-68
2023/05/10 01:19:50;;;;;;;;;;;13.20;99.90;;;;;;5050451;28;19991;-68
2023/05/10 01:22:26;;;;;;;;;;;13.20;99.90;;;;;;5053810;28;19931;-68
2023/05/10 01:25:12;;;;;;;;;;;13.20;99.90;;;;;;5055690;28;19929;-68
2023/05/10 01:28:09;;;;;;;;;;;13.30;99.90;;;;;;5053605;28;19932;-69
2023/05/10 01:30:51;;;;;;;;;;;13.30;99.90;;;;;;5056563;28;19929;-67
2023/05/10 01:33:21;;;;;;;;;;;13.30;99.90;;;;;;5060572;28;20315;-69
2023/05/10 01:35:53;;;;;;;;;;;13.30;99.90;;;;;;5061900;28;19931;-67
2023/05/10 01:38:23;;;;;;;;;;;13.20;99.90;;;;;;5057166;28;19948;-68
2023/05/10 01:40:55;;;;;;;;;;;13.20;99.90;;;;;;5053861;28;19925;-68
2023/05/10 01:43:23;;;;;;;;;;;13.20;99.90;;;;;;5051124;28;19924;-68
2023/05/10 01:45:57;;;;;;;;;;;13.00;99.90;;;;;;5051535;28;19932;-67
2023/05/10 01:48:26;;;;;;;;;;;13.00;99.90;;;;;;5050767;28;19928;-69
2023/05/10 01:50:54;;;;;;;;;;;12.90;99.90;;;;;;5056196;28;19951;-67
2023/05/10 01:53:22;;;;;;;;;;;12.90;99.90;;;;;;5041622;28;19932;-67
2023/05/10 01:55:52;;;;;;;;;;;12.90;99.90;;;;;;5035557;28;19924;-68
2023/05/10 01:58:21;;;;;;;;;;;13.00;99.90;;;;;;5045418;28;19932;-68
2023/05/10 02:00:48;;;;;;;;;;;;;;;;;;5055403;28;20015;-67
2023/05/10 02:03:15;;;;;;;;;;;13.00;99.90;;;;;;5058106;28;19932;-69
2023/05/10 02:05:45;;;;;;;;;;;13.00;99.90;;;;;;5058770;28;19940;-68
2023/05/10 02:08:12;;;;;;;;;;;13.00;99.90;;;;;;5055997;28;19931;-67
2023/05/10 02:10:40;;;;;;;;;;;13.00;99.90;;;;;;5050361;28;19931;-68
2023/05/10 02:13:08;;;;;;;;;;;13.00;99.90;;;;;;5052542;28;19925;-68
2023/05/10 02:15:36;;;;;;;;;;;13.00;99.90;;;;;;5052313;28;20384;-67
2023/05/10 02:18:03;;;;;;;;;;;13.00;99.90;;;;;;5061493;28;19925;-68
2023/05/10 02:20:32;;;;;;;;;;;13.10;99.90;;;;;;5056292;28;19925;-68
2023/05/10 02:23:00;;;;;;;;;;;13.10;99.90;;;;;;5048813;28;19935;-68
2023/05/10 02:25:28;;;;;;;;;;;13.10;99.90;;;;;;5051169;28;19925;-68
2023/05/10 02:27:55;;;;;;;;;;;13.10;99.90;;;;;;5043793;28;19929;-67
2023/05/10 02:30:23;;;;;;;;;;;13.10;99.90;;;;;;5059452;28;19931;-68
2023/05/10 02:32:51;;;;;;;;;;;13.10;99.90;;;;;;5048987;28;19928;-68
2023/05/10 02:35:18;;;;;;;;;;;13.10;99.90;;;;;;5050185;28;19924;-68
2023/05/10 02:37:45;;;;;;;;;;;13.10;99.90;;;;;;5056759;28;19975;-69
2023/05/10 02:40:16;;;;;;;;;;;13.10;99.90;;;;;;5055252;28;19925;-68
2023/05/10 02:42:44;;;;;;;;;;;13.10;99.90;;;;;;5053831;28;19936;-67
2023/05/10 02:45:13;;;;;;;;;;;13.10;99.90;;;;;;5053467;28;19932;-68
2023/05/10 02:47:40;;;;;;;;;;;13.10;99.90;;;;;;5054485;28;19924;-69
2023/05/10 02:50:07;;;;;;;;;;;13.10;99.90;;;;;;5049333;28;19936;-67
2023/05/10 02:52:39;;;;;;;;;;;13.10;99.90;;;;;;5055009;28;19950;-69
2023/05/10 02:55:08;;;;;;;;;;;13.20;99.90;;;;;;5045056;28;20418;-67
2023/05/10 02:57:35;;;;;;;;;;;;;;;;;;5063945;28;19936;-68
2023/05/10 03:00:03;;;;;;;;;;;13.10;99.90;;;;;;5045769;28;20376;-68
2023/05/10 03:02:30;;;;;;;;;;;13.20;99.90;;;;;;5066250;28;19965;-68
2023/05/10 03:04:57;;;;;;;;;;;13.10;99.90;;;;;;5060545;28;19991;-68
2023/05/10 03:07:24;;;;;;;;;;;13.20;99.90;;;;;;5043835;28;19997;-67
2023/05/10 03:09:51;;;;;;;;;;;13.20;99.90;;;;;;5067613;28;19932;-66
2023/05/10 03:12:24;;;;;;;;;;;13.10;99.90;;;;;;5062560;28;19931;-68
2023/05/10 03:14:54;;;;;;;;;;;13.10;99.90;;;;;;5070277;28;19928;-69
2023/05/10 03:17:24;;;;;;;;;;;13.00;99.90;;;;;;5058336;28;19925;-68
2023/05/10 03:19:54;;;;;;;;;;;13.00;99.90;;;;;;5058153;28;19925;-67
2023/05/10 03:22:24;;;;;;;;;;;13.10;99.90;;;;;;5058178;28;19924;-66
2023/05/10 03:24:52;;;;;;;;;;;13.00;99.90;;;;;;5057739;28;19964;-67
2023/05/10 03:27:19;;;;;;;;;;;13.00;99.90;;;;;;5064941;28;19924;-68
2023/05/10 03:29:47;;;;;;;;;;;13.00;99.90;;;;;;5061360;28;19975;-68
2023/05/10 03:32:14;;;;;;;;;;;13.00;99.90;;;;;;5055643;28;20019;-67
2023/05/10 03:34:43;;;;;;;;;;;13.00;99.90;;;;;;5062603;28;20319;-68
2023/05/10 03:37:10;;;;;;;;;;;13.00;99.90;;;;;;5052193;28;19929;-69
2023/05/10 03:39:37;;;;;;;;;;;13.00;99.90;;;;;;5044234;28;19925;-68
2023/05/10 03:42:07;;;;;;;;;;;13.00;99.90;;;;;;5045458;28;19933;-67
2023/05/10 03:44:34;;;;;;;;;;;13.00;99.90;;;;;;5039613;28;19925;-69
2023/05/10 03:47:00;;;;;;;;;;;12.90;99.90;;;;;;5050288;28;19932;-68
2023/05/10 03:49:27;;;;;;;;;;;12.90;99.90;;;;;;5044477;28;19932;-67
2023/05/10 03:51:56;;;;;;;;;;;12.90;99.90;;;;;;5059403;28;19971;-69
2023/05/10 03:54:23;;;;;;;;;;;;;;;;;;5060619;28;20416;-68
2023/05/10 03:56:50;;;;;;;;;;;12.80;99.90;;;;;;5048671;28;19925;-66
2023/05/10 03:59:18;;;;;;;;;;;12.90;99.90;;;;;;5037360;28;19925;-67
2023/05/10 04:01:45;;;;;;;;;;;12.90;99.90;;;;;;5033808;28;19925;-68
2023/05/10 04:04:12;;;;;;;;;;;12.80;99.90;;;;;;5034890;28;19925;-68
2023/05/10 04:06:38;;;;;;;;;;;12.90;99.90;;;;;;5042757;28;19976;-68
2023/05/10 04:09:08;;;;;;;;;;;12.80;99.90;;;;;;5038332;28;19925;-68
2023/05/10 04:11:35;;;;;;;;;;;12.80;99.90;;;;;;5053104;28;19925;-68
2023/05/10 04:14:01;;;;;;;;;;;12.80;99.90;;;;;;5038762;28;19925;-67
2023/05/10 04:16:28;;;;;;;;;;;12.80;99.90;;;;;;5043897;28;19926;-68
2023/05/10 04:18:55;;;;;;;;;;;;;;;;;;5045621;28;19925;-68
2023/05/10 04:21:22;;;;;;;;;;;12.80;99.90;;;;;;5041447;28;19925;-68
2023/05/10 04:23:49;;;;;;;;;;;12.80;99.90;;;;;;5042483;28;19925;-67
2023/05/10 04:26:17;;;;;;;;;;;12.80;99.90;;;;;;5039193;28;19952;-67
2023/05/10 04:28:44;;;;;;;;;;;12.80;99.90;;;;;;5036109;28;20392;-68
2023/05/10 04:31:11;;;;;;;;;;;12.80;99.90;;;;;;5032367;28;19925;-68
2023/05/10 04:33:38;;;;;;;;;;;12.70;99.90;;;;;;5059261;28;19925;-70
2023/05/10 04:36:05;;;;;;;;;;;12.80;99.90;;;;;;5041449;28;19925;-68
2023/05/10 04:38:32;;;;;;;;;;;12.70;99.90;;;;;;5045763;28;19960;-70
2023/05/10 04:41:05;;;;;;;;;;;12.60;99.90;;;;;;5035993;28;20404;-68
2023/05/10 04:43:33;;;;;;;;;;;12.70;99.90;;;;;;5045335;28;19976;-70
2023/05/10 04:46:00;;;;;;;;;;;12.70;99.90;;;;;;5045224;28;19924;-69
2023/05/10 04:48:26;;;;;;;;;;;12.70;99.90;;;;;;5042541;28;19931;-69
2023/05/10 04:50:53;;;;;;;;;;;12.60;99.90;;;;;;5042736;28;19925;-69
2023/05/10 04:53:20;;;;;;;;;;;12.70;99.90;;;;;;5035008;28;19971;-69
2023/05/10 04:55:47;;;;;;;;;;;12.70;99.90;;;;;;5049860;28;20527;-66
2023/05/10 04:58:14;;;;;;;;;;;12.80;99.90;;;;;;5037603;28;19925;-67
2023/05/10 05:00:42;;;;;;;;;;;12.80;99.90;;;;;;5044843;28;19929;-67
2023/05/10 05:03:09;;;;;;;;;;;12.70;99.90;;;;;;5034532;28;19926;-67
2023/05/10 05:05:36;;;;;;;;;;;12.70;99.90;;;;;;5036598;28;19933;-65
2023/05/10 05:08:03;;;;;;;;;;;12.70;99.90;;;;;;5036283;28;19929;-67
2023/05/10 05:10:29;;;;;;;;;;;12.70;99.90;;;;;;5041590;28;19924;-67
2023/05/10 05:12:56;;;;;;;;;;;12.80;99.90;;;;;;5044341;28;19931;-66
2023/05/10 05:15:23;;;;;;;;;;;12.80;99.90;;;;;;5048672;28;19929;-68
2023/05/10 05:17:51;;;;;;;;;;;12.80;99.90;;;;;;5036810;28;19925;-68
2023/05/10 05:20:18;;;;;;;;;;;12.80;99.90;;;;;;5040013;28;19933;-67
2023/05/10 05:22:45;;;;;;;;;;;12.90;99.90;;;;;;5042810;28;19971;-66
2023/05/10 05:25:12;;;;;;;;;;;12.80;99.90;;;;;;5032756;28;19925;-66
2023/05/10 05:27:39;;;;;;;;;;;12.90;99.90;;;;;;5032880;28;20335;-67
2023/05/10 05:30:06;;;;;;;;;;;12.90;99.90;;;;;;5046315;28;19932;-68
2023/05/10 05:32:33;;;;;;;;;;;12.90;99.90;;;;;;5037288;28;19925;-65
2023/05/10 05:35:01;;;;;;;;;;;12.90;99.90;;;;;;5050305;28;19925;-68
2023/05/10 05:37:28;;;;;;;;;;;12.90;99.90;;;;;;5042951;28;19936;-68
2023/05/10 05:39:55;;;;;;;;;;;12.90;99.90;;;;;;5049053;28;19925;-68
2023/05/10 05:42:22;;;;;;;;;;;12.90;99.90;;;;;;5037004;28;19932;-67
2023/05/10 05:44:49;;;;;;;;;;;13.00;99.90;;;;;;5038825;28;19972;-67
2023/05/10 05:47:15;;;;;;;;;;;13.00;99.90;;;;;;5035452;28;19929;-68
2023/05/10 05:49:45;;;;;;;;;;;13.00;99.90;;;;;;5041044;28;20289;-68
2023/05/10 05:52:13;;;;;;;;;;;13.00;99.90;;;;;;5040273;28;19960;-67
2023/05/10 05:54:40;;;;;;;;;;;13.00;99.90;;;;;;5042612;28;19932;-67
2023/05/10 05:57:07;;;;;;;;;;;13.00;99.90;;;;;;5038367;28;19933;-68
2023/05/10 05:59:34;;;;;;;;;;;13.00;99.90;;;;;;5041897;28;20042;-67
2023/05/10 06:02:00;;;;;;;;;;;13.00;99.90;;;;;;5049246;28;20342;-67
2023/05/10 06:04:27;;;;;;;;;;;12.90;99.90;;;;;;5039971;28;20023;-67
2023/05/10 06:06:54;;;;;;;;;;;12.90;99.90;;;;;;5037669;28;19925;-67
2023/05/10 06:09:23;;;;;;;;;;;12.90;99.90;;;;;;5038034;28;19937;-67
2023/05/10 06:11:50;;;;;;;;;;;12.90;99.90;;;;;;5046915;28;20020;-67
2023/05/10 06:14:17;;;;;;;;;;;12.90;99.90;;;;;;5037947;28;19925;-67
2023/05/10 06:16:43;;;;;;;;;;;12.90;99.90;;;;;;5037380;28;19936;-68
2023/05/10 06:19:10;;;;;;;;;;;12.90;99.90;;;;;;5042228;28;19925;-67
2023/05/10 06:21:37;;;;;;;;;;;12.90;99.90;;;;;;5043979;28;19928;-67
2023/05/10 06:24:04;;;;;;;;;;;12.90;99.90;;;;;;5049806;28;19928;-67
2023/05/10 06:26:32;;;;;;;;;;;12.90;99.90;;;;;;5043661;28;20423;-68
2023/05/10 06:28:59;;;;;;;;;;;12.90;99.90;;;;;;5043352;28;20315;-68
2023/05/10 06:31:26;;;;;;;;;;;13.00;99.90;;;;;;5036707;28;19926;-68
2023/05/10 06:33:53;;;;;;;;;;;13.00;99.90;;;;;;5035850;28;19925;-68
2023/05/10 06:36:19;;;;;;;;;;;13.10;99.90;;;;;;5034133;28;19948;-68
2023/05/10 06:38:46;;;;;;;;;;;13.00;99.90;;;;;;5037615;28;20303;-68
2023/05/10 06:41:13;;;;;;;;;;;13.10;99.90;;;;;;5044943;28;19924;-67
2023/05/10 06:43:43;;;;;;;;;;;13.00;99.90;;;;;;5039977;28;20465;-68
2023/05/10 06:46:09;;;;;;;;;;;13.00;99.90;;;;;;5049097;28;20403;-65
2023/05/10 06:48:36;;;;;;;;;;;13.00;99.90;;;;;;5041677;28;20363;-68
2023/05/10 06:51:03;;;;;;;;;;;13.00;99.90;;;;;;5047378;28;19924;-69
2023/05/10 06:53:30;;;;;;;;;;;13.00;99.90;;;;;;5048419;28;19936;-68
2023/05/10 06:55:56;;;;;;;;;;;13.10;99.90;;;;;;5042542;28;19925;-68
2023/05/10 06:58:23;;;;;;;;;;;13.10;99.90;;;;;;5047523;28;20353;-69
2023/05/10 07:00:51;;;;;;;;;;;13.10;99.90;;;;;;5046415;28;19929;-66
2023/05/10 07:03:18;;;;;;;;;;;13.20;99.90;;;;;;5049804;28;19975;-68
2023/05/10 07:05:45;;;;;;;;;;;13.30;99.90;;;;;;5049660;28;19925;-68
2023/05/10 07:08:13;;;;;;;;;;;13.40;99.90;;;;;;5060686;28;19925;-68
2023/05/10 07:10:39;;;;;;;;;;;13.40;99.90;;;;;;5044564;28;19935;-69
2023/05/10 07:13:06;;;;;;;;;;;13.50;99.90;;;;;;5045961;28;19932;-68
2023/05/10 07:15:33;;;;;;;;;;;13.50;99.90;;;;;;5044915;28;19978;-67
2023/05/10 07:18:01;;;;;;;;;;;13.40;99.90;;;;;;5045247;28;19925;-67
2023/05/10 07:20:28;;;;;;;;;;;13.40;99.90;;;;;;5043607;28;19924;-67
2023/05/10 07:22:55;;;;;;;;;;;13.40;99.90;;;;;;5044785;28;19925;-67
2023/05/10 07:25:22;;;;;;;;;;;13.30;99.90;;;;;;5042320;28;19928;-69
2023/05/10 07:27:48;;;;;;;;;;;13.40;99.90;;;;;;5043923;28;19932;-66
2023/05/10 07:30:16;;;;;;;;;;;13.40;99.90;;;;;;5046592;28;20016;-68
2023/05/10 07:32:42;;;;;;;;;;;13.40;99.90;;;;;;5052268;28;20019;-68
2023/05/10 07:35:11;;;;;;;;;;;13.50;99.90;;;;;;5048013;28;20342;-67
2023/05/10 07:37:37;;;;;;;;;;;13.50;99.90;;;;;;5039653;28;20367;-68
2023/05/10 07:40:04;;;;;;;;;;;13.70;99.90;;;;;;5045077;28;19925;-68
2023/05/10 07:42:31;;;;;;;;;;;13.80;99.90;;;;;;5042837;28;19925;-69
2023/05/10 07:44:58;;;;;;;;;;;13.80;99.90;;;;;;5047526;28;19932;-68
2023/05/10 07:47:25;;;;;;;;;;;14.00;99.90;;;;;;5060840;28;20088;-68
2023/05/10 07:49:52;;;;;;;;;;;14.10;99.90;;;;;;5042853;28;19924;-68
2023/05/10 07:52:20;;;;;;;;;;;14.20;99.90;;;;;;5044410;28;19936;-68
2023/05/10 07:54:47;;;;;;;;;;;14.40;99.90;;;;;;5039207;28;19933;-68
2023/05/10 07:57:17;;;;;;;;;;;14.40;99.90;;;;;;5045581;28;19924;-66
2023/05/10 07:59:44;;;;;;;;;;;14.40;99.90;;;;;;5049592;28;19970;-69
2023/05/10 08:02:11;;;;;;;;;;;14.40;99.90;;;;;;5047959;28;19924;-68
2023/05/10 08:04:37;;;;;;;;;;;14.20;99.90;;;;;;5043354;28;20337;-67
2023/05/10 08:07:04;;;;;;;;;;;14.10;99.90;;;;;;5045711;28;19925;-68
2023/05/10 08:09:32;;;;;;;;;;;14.00;99.90;;;;;;5045609;28;19932;-67
2023/05/10 08:11:59;;;;;;;;;;;14.00;99.90;;;;;;5048128;28;19928;-67
2023/05/10 08:14:26;;;;;;;;;;;13.90;99.90;;;;;;5042316;28;19925;-67
2023/05/10 08:16:53;;;;;;;;;;;13.80;99.90;;;;;;5049601;28;19924;-66
2023/05/10 08:19:21;;;;;;;;;;;13.80;99.90;;;;;;5038637;28;19928;-67
2023/05/10 08:21:47;;;;;;;;;;;13.80;99.90;;;;;;5049009;28;20014;-66
2023/05/10 08:24:14;;;;;;;;;;;13.90;99.90;;;;;;5045142;28;19960;-67
2023/05/10 08:26:42;;;;;;;;;;;14.00;99.90;;;;;;5049619;28;20019;-67
2023/05/10 08:29:09;;;;;;;;;;;13.80;99.90;;;;;;5042454;28;19932;-67
2023/05/10 08:31:35;;;;;;;;;;;14.00;99.90;;;;;;5047215;28;19925;-67
2023/05/10 08:34:02;;;;;;;;;;;14.20;99.90;;;;;;5042321;28;19925;-67
2023/05/10 08:36:28;;;;;;;;;;;14.20;99.90;;;;;;5053488;28;19975;-67
2023/05/10 08:38:55;;;;;;;;;;;14.30;99.90;;;;;;5044169;28;19971;-67
2023/05/10 08:41:23;;;;;;;;;;;14.50;99.90;;;;;;5052989;28;20426;-68
2023/05/10 08:43:52;;;;;;;;;;;14.70;99.90;;;;;;5041284;28;19940;-67
2023/05/10 08:46:20;;;;;;;;;;;14.70;99.90;;;;;;5050200;28;20416;-67
2023/05/10 08:48:48;;;;;;;;;;;14.50;99.90;;;;;;5048735;28;19924;-66
2023/05/10 08:51:16;;;;;;;;;;;14.40;99.90;;;;;;5047520;28;19929;-68
2023/05/10 08:53:43;;;;;;;;;;;14.30;99.90;;;;;;5045844;28;20026;-67
2023/05/10 08:56:10;;;;;;;;;;;14.30;99.90;;;;;;5045279;28;19929;-66
2023/05/10 08:58:37;;;;;;;;;;;14.30;99.90;;;;;;5044905;28;19932;-68
2023/05/10 09:01:05;;;;;;;;;;;14.20;99.90;;;;;;5042929;28;20008;-68
2023/05/10 09:03:32;;;;;;;;;;;14.20;99.90;;;;;;5040734;28;19941;-67
2023/05/10 09:05:59;;;;;;;;;;;14.10;99.90;;;;;;5044297;28;20175;-67
2023/05/10 09:08:26;;;;;;;;;;;14.10;99.90;;;;;;5054095;28;19931;-66
2023/05/10 09:10:53;;;;;;;;;;;14.20;99.90;;;;;;5042876;28;19939;-67
2023/05/10 09:13:21;;;;;;;;;;;14.10;99.90;;;;;;5046683;28;20326;-68
2023/05/10 09:15:49;;;;;;;;;;;14.10;99.90;;;;;;5043896;28;19929;-68
2023/05/10 09:18:17;;;;;;;;;;;14.10;99.90;;;;;;5057847;28;19929;-67
2023/05/10 09:20:44;;;;;;;;;;;14.10;99.90;;;;;;5036958;28;19929;-69
2023/05/10 09:23:11;;;;;;;;;;;14.10;99.90;;;;;;5062152;28;19960;-67
2023/05/10 09:25:38;;;;;;;;;;;14.10;99.90;;;;;;5045484;28;20308;-67
2023/05/10 09:28:07;;;;;;;;;;;14.30;99.90;;;;;;5044162;28;19925;-67
2023/05/10 09:30:34;;;;;;;;;;;14.50;99.90;;;;;;5044002;28;19933;-67
2023/05/10 09:33:01;;;;;;;;;;;;;;;;;;5061901;28;19929;-67
2023/05/10 09:35:30;;;;;;;;;;;14.40;99.90;;;;;;5040394;28;19975;-68
2023/05/10 09:37:57;;;;;;;;;;;14.30;99.90;;;;;;5049059;28;19925;-67
2023/05/10 09:40:25;;;;;;;;;;;14.30;99.90;;;;;;5048770;28;20449;-67
2023/05/10 09:42:52;;;;;;;;;;;14.50;99.90;;;;;;5044123;28;19997;-68
2023/05/10 09:45:19;;;;;;;;;;;14.40;99.90;;;;;;5044825;28;19925;-67
2023/05/10 09:47:46;;;;;;;;;;;14.40;99.90;;;;;;5048664;28;19932;-67
2023/05/10 09:50:13;;;;;;;;;;;14.50;99.90;;;;;;5060973;28;20039;-68
2023/05/10 09:52:48;;;;;;;;;;;14.40;99.90;;;;;;5048991;28;19929;-67
2023/05/10 09:55:15;;;;;;;;;;;14.50;99.90;;;;;;5047832;28;19932;-68
2023/05/10 09:57:42;;;;;;;;;;;14.60;99.90;;;;;;5052208;28;19925;-67
2023/05/10 10:00:09;;;;;;;;;;;14.60;99.90;;;;;;5043296;28;19929;-67
2023/05/10 10:02:42;;;;;;;;;;;14.70;99.90;;;;;;5040399;28;19925;-68
2023/05/10 10:05:09;;;;;;;;;;;14.50;99.90;;;;;;5049174;28;19924;-66
2023/05/10 10:07:36;;;;;;;;;;;14.30;99.90;;;;;;5040323;28;19924;-67
2023/05/10 10:10:05;;;;;;;;;;;14.70;99.90;;;;;;5046426;28;20319;-67
2023/05/10 10:12:32;;;;;;;;;;;14.80;99.90;;;;;;5044620;28;19937;-67
2023/05/10 10:15:01;;;;;;;;;;;15.00;99.90;;;;;;5047436;28;19932;-67
2023/05/10 10:17:29;;;;;;;;;;;15.00;99.90;;;;;;5053824;28;20012;-67
2023/05/10 10:19:56;;;;;;;;;;;14.90;99.90;;;;;;5043070;28;19933;-67
2023/05/10 10:22:23;;;;;;;;;;;15.00;99.90;;;;;;5056355;28;19925;-68
2023/05/10 10:24:51;;;;;;;;;;;15.00;99.90;;;;;;5047243;28;19929;-68
2023/05/10 10:27:23;;;;;;;;;;;14.90;99.90;;;;;;5052118;28;19932;-67
2023/05/10 10:29:59;;;;;;;;;;;14.90;99.90;;;;;;5047679;28;19933;-67
2023/05/10 10:32:29;;;;;;;;;;;14.80;99.90;;;;;;5055821;28;19948;-67
2023/05/10 10:34:56;;;;;;;;;;;14.60;99.90;;;;;;5051525;28;19924;-67
2023/05/10 10:37:23;;;;;;;;;;;14.30;99.90;;;;;;5046943;28;20027;-68
2023/05/10 10:39:50;;;;;;;;;;;14.40;99.90;;;;;;5049896;28;19925;-68
2023/05/10 10:42:44;;;;;;;;;;;14.30;99.90;;;;;;5061489;28;19926;-68
2023/05/10 10:45:14;;;;;;;;;;;14.50;99.90;;;;;;5049428;28;19928;-68
2023/05/10 10:47:42;;;;;;;;;;;14.50;99.90;;;;;;5047918;28;19967;-68
2023/05/10 10:50:12;;;;;;;;;;;14.50;99.90;;;;;;5060431;28;19974;-68
2023/05/10 10:52:39;;;;;;;;;;;14.70;99.90;;;;;;5040691;28;20400;-67
2023/05/10 10:55:08;;;;;;;;;;;14.80;99.90;;;;;;5049342;28;19929;-68
2023/05/10 10:57:44;;;;;;;;;;;14.80;99.90;;;;;;5043743;28;20483;-69
2023/05/10 11:00:24;;;;;;;;;;;14.80;99.90;;;;;;5054562;28;19968;-67
2023/05/10 11:02:52;;;;;;;;;;;14.80;99.90;;;;;;5052743;28;20030;-67
2023/05/10 11:05:26;;;;;;;;;;;14.80;99.90;;;;;;5055094;28;19929;-68
2023/05/10 11:07:53;;;;;;;;;;;14.80;99.90;;;;;;5053196;28;19925;-67
2023/05/10 11:10:20;;;;;;;;;;;15.00;99.90;;;;;;5053696;28;20377;-68
2023/05/10 11:13:01;;;;;;;;;;;14.80;99.90;;;;;;5055217;28;19925;-67
2023/05/10 11:15:31;;;;;;;;;;;14.80;99.90;;;;;;5050254;28;19975;-65
2023/05/10 11:17:58;;;;;;;;;;;15.00;99.90;;;;;;5047933;28;19979;-67
2023/05/10 11:20:33;;;;;;;;;;;15.10;99.90;;;;;;5045781;28;19925;-66
2023/05/10 11:23:11;;;;;;;;;;;15.20;99.90;;;;;;5056661;28;19933;-67
2023/05/10 11:25:41;;;;;;;;;;;15.30;99.90;;;;;;5047828;28;19924;-67
2023/05/10 11:28:10;;;;;;;;;;;15.40;99.90;;;;;;5047371;28;19929;-67
2023/05/10 11:30:37;;;;;;;;;;;15.60;99.90;;;;;;5066972;28;20007;-67
2023/05/10 11:33:04;;;;;;;;;;;16.00;99.90;;;;;;5047514;28;20025;-67
2023/05/10 11:35:30;;;;;;;;;;;16.80;99.90;;;;;;5047587;28;19932;-68
2023/05/10 11:37:57;;;;;;;;;;;17.40;99.90;;;;;;5051336;28;19990;-67
2023/05/10 11:40:24;;;;;;;;;;;;;;;;;;5062434;28;19925;-67
2023/05/10 11:42:51;;;;;;;;;;;17.70;99.90;;;;;;5055232;28;19925;-68
2023/05/10 11:45:21;;;;;;;;;;;17.70;99.90;;;;;;5053245;28;19925;-67
2023/05/10 11:47:49;;;;;;;;;;;17.90;99.90;;;;;;5045790;28;20450;-68
2023/05/10 11:50:16;;;;;;;;;;;18.90;99.90;;;;;;5051537;28;19925;-67
2023/05/10 11:52:43;;;;;;;;;;;19.50;99.90;;;;;;5051102;28;19925;-67
2023/05/10 11:55:10;;;;;;;;;;;20.70;99.90;;;;;;5062853;28;19929;-68
2023/05/10 11:57:38;;;;;;;;;;;21.40;99.90;;;;;;5055448;28;19928;-68
2023/05/10 12:00:05;;;;;;;;;;;21.30;99.90;;;;;;5049019;28;19932;-68
2023/05/10 12:02:35;;;;;;;;;;;20.60;99.90;;;;;;5056320;28;20019;-68
2023/05/10 12:05:03;;;;;;;;;;;20.40;99.90;;;;;;5047984;28;19925;-68
2023/05/10 12:07:30;;;;;;;;;;;19.60;99.90;;;;;;5045594;28;20347;-68
2023/05/10 12:10:04;;;;;;;;;;;18.90;99.90;;;;;;5054670;28;19929;-68
2023/05/10 12:12:36;;;;;;;;;;;18.50;99.90;;;;;;5066776;23;19925;-70
2023/05/10 12:15:03;;;;;;;;;;;18.60;99.90;;;;;;5050469;28;19983;-69
2023/05/10 12:17:30;;;;;;;;;;;18.20;99.90;;;;;;5044233;28;19925;-69
2023/05/10 12:20:13;;;;;;;;;;;18.50;99.90;;;;;;5042286;28;20348;-69
2023/05/10 12:22:40;;;;;;;;;;;19.10;99.90;;;;;;5047455;28;20028;-69
2023/05/10 12:25:07;;;;;;;;;;;18.60;99.90;;;;;;5043075;28;20303;-69
2023/05/10 12:27:34;;;;;;;;;;;18.90;99.90;;;;;;5043844;28;19925;-68
2023/05/10 12:30:00;;;;;;;;;;;19.20;99.90;;;;;;5044659;28;19925;-69
2023/05/10 12:32:38;;;;;;;;;;;20.40;99.90;;;;;;5044091;28;19960;-68
2023/05/10 12:35:07;;;;;;;;;;;21.20;99.90;;;;;;5047802;28;19925;-68
2023/05/10 12:37:35;;;;;;;;;;;21.70;99.90;;;;;;5044786;28;19997;-69
2023/05/10 12:40:04;;;;;;;;;;;22.10;99.90;;;;;;5046933;28;19924;-68
2023/05/10 12:42:31;;;;;;;;;;;21.50;99.90;;;;;;5054703;28;19931;-68
2023/05/10 12:44:58;;;;;;;;;;;21.80;99.90;;;;;;5047991;28;19970;-69
2023/05/10 12:47:24;;;;;;;;;;;22.30;99.90;;;;;;5040605;28;20019;-69
2023/05/10 12:49:51;;;;;;;;;;;22.10;99.90;;;;;;5045989;28;19932;-69
2023/05/10 12:52:19;;;;;;;;;;;22.40;99.90;;;;;;5056693;28;19935;-69
2023/05/10 12:54:46;;;;;;;;;;;23.30;99.90;;;;;;5042552;28;20024;-69
2023/05/10 12:57:13;;;;;;;;;;;23.00;99.90;;;;;;5042293;28;19928;-69
2023/05/10 12:59:40;;;;;;;;;;;20.80;99.90;;;;;;5043380;28;19925;-69
2023/05/10 13:02:07;;;;;;;;;;;20.00;99.90;;;;;;5035666;28;20018;-68
2023/05/10 13:04:34;;;;;;;;;;;19.80;99.90;;;;;;5041565;28;19924;-69
2023/05/10 13:07:00;;;;;;;;;;;18.00;99.90;;;;;;5046465;28;19925;-69
2023/05/10 13:09:29;;;;;;;;;;;20.80;99.90;;;;;;5043481;28;19994;-69
2023/05/10 13:11:55;;;;;;;;;;;21.60;99.90;;;;;;5040029;28;19937;-69
2023/05/10 13:14:22;;;;;;;;;;;21.60;99.90;;;;;;5044332;28;19960;-69
2023/05/10 13:16:49;;;;;;;;;;;21.50;99.90;;;;;;5047347;28;20376;-68
2023/05/10 13:19:16;;;;;;;;;;;20.90;99.90;;;;;;5049859;28;19975;-69
2023/05/10 13:21:44;;;;;;;;;;;21.30;99.90;;;;;;5054078;28;20023;-69
2023/05/10 13:24:13;;;;;;;;;;;20.80;99.90;;;;;;5043008;28;20283;-69
2023/05/10 13:26:41;;;;;;;;;;;20.20;99.90;;;;;;5044702;28;19924;-69
2023/05/10 13:29:08;;;;;;;;;;;19.50;99.90;;;;;;5039665;28;19925;-68
2023/05/10 13:31:36;;;;;;;;;;;19.60;99.90;;;;;;5034840;28;20242;-68
2023/05/10 13:34:03;;;;;;;;;;;19.20;99.90;;;;;;5042170;28;19924;-68
2023/05/10 13:36:30;;;;;;;;;;;19.00;99.90;;;;;;5049618;28;20400;-68
2023/05/10 13:38:56;;;;;;;;;;;18.80;99.90;;;;;;5052550;28;20023;-69
2023/05/10 13:41:23;;;;;;;;;;;18.60;99.90;;;;;;5034205;28;19991;-69
2023/05/10 13:43:51;;;;;;;;;;;18.30;99.90;;;;;;5040035;28;19975;-69
2023/05/10 13:46:17;;;;;;;;;;;18.40;99.90;;;;;;5043276;28;20006;-69
2023/05/10 13:48:44;;;;;;;;;;;18.20;99.90;;;;;;5045248;28;19975;-69
2023/05/10 13:51:11;;;;;;;;;;;18.00;99.90;;;;;;5041573;28;20307;-68
2023/05/10 13:53:38;;;;;;;;;;;18.10;99.90;;;;;;5037864;28;19924;-68
2023/05/10 13:56:04;;;;;;;;;;;18.10;99.90;;;;;;5045119;28;19924;-68
2023/05/10 13:58:31;;;;;;;;;;;18.40;99.90;;;;;;5047819;28;19924;-68
2023/05/10 14:00:59;;;;;;;;;;;18.80;99.90;;;;;;5043001;28;19978;-69
2023/05/10 14:03:26;;;;;;;;;;;18.70;99.90;;;;;;5043348;28;19925;-69
2023/05/10 14:05:53;;;;;;;;;;;18.60;99.90;;;;;;5040420;28;19979;-68
2023/05/10 14:08:20;;;;;;;;;;;18.50;99.90;;;;;;5040303;28;19929;-68
2023/05/10 14:10:46;;;;;;;;;;;18.80;99.90;;;;;;5062478;28;20280;-69
2023/05/10 14:13:13;;;;;;;;;;;19.10;99.90;;;;;;5045566;28;19940;-68
2023/05/10 14:15:40;;;;;;;;;;;19.10;99.90;;;;;;5057941;28;19929;-69
2023/05/10 14:18:08;;;;;;;;;;;19.50;99.90;;;;;;5039900;28;19982;-69
2023/05/10 14:20:35;;;;;;;;;;;19.50;99.90;;;;;;5037747;28;19995;-69
2023/05/10 14:23:02;;;;;;;;;;;19.50;99.90;;;;;;5038814;28;20407;-69